Time;durP1;ratioP1;P1;durP2;ratioP2;P2;SDS_P1;SDS_P2;PMS_P1;PMS_P2;Temp;Humidity;BMP_temperature;BMP_pressure;BME280_temperature;BME280_humidity;BME280_pressure;Samples;Min_cycle;Max_cycle;Signal;HPM_P1;HPM_P2
2021/12/23 00:02:03;;;;;;;50.58;27.10;;;2.30;99.90;;;;;;5033437;28;20021;-73
2021/12/23 00:04:29;;;;;;;50.45;24.45;;;2.20;99.90;;;;;;5033193;28;20068;-72
2021/12/23 00:06:55;;;;;;;54.95;28.60;;;2.10;99.90;;;;;;5033179;28;20021;-72
2021/12/23 00:09:23;;;;;;;50.83;27.23;;;2.10;99.90;;;;;;5033157;28;20036;-73
2021/12/23 00:11:48;;;;;;;50.22;25.05;;;2.20;99.90;;;;;;5033185;28;20022;-71
2021/12/23 00:14:14;;;;;;;51.20;27.20;;;2.20;99.90;;;;;;5033116;28;20485;-74
2021/12/23 00:16:55;;;;;;;51.53;27.42;;;2.30;99.90;;;;;;5033080;28;20026;-71
2021/12/23 00:19:36;;;;;;;;;;;2.30;99.90;;;;;;5033527;28;20025;-72
2021/12/23 00:24:49;;;;;;;52.58;25.25;;;2.30;99.90;;;;;;5033222;28;20059;-72
2021/12/23 00:27:15;;;;;;;54.10;26.23;;;2.30;99.90;;;;;;5032960;28;20105;-72
2021/12/23 00:29:41;;;;;;;48.60;24.73;;;2.20;99.90;;;;;;5033003;28;20132;-74
2021/12/23 00:32:08;;;;;;;48.40;26.63;;;2.20;99.90;;;;;;5033221;28;20025;-74
2021/12/23 00:34:35;;;;;;;52.13;26.25;;;2.20;99.90;;;;;;5033219;28;20021;-72
2021/12/23 00:37:02;;;;;;;46.67;24.63;;;2.20;99.90;;;;;;5033203;28;20021;-72
2021/12/23 00:39:29;;;;;;;48.88;25.65;;;2.30;99.90;;;;;;5033100;28;20021;-71
2021/12/23 00:41:56;;;;;;;53.60;27.80;;;2.20;99.90;;;;;;5032810;28;20021;-75
2021/12/23 00:44:22;;;;;;;56.45;27.90;;;2.20;99.90;;;;;;5033350;28;20018;-73
2021/12/23 00:46:47;;;;;;;50.17;26.67;;;2.20;99.90;;;;;;5032818;28;20054;-74
2021/12/23 00:49:13;;;;;;;48.35;25.80;;;2.20;99.90;;;;;;5032765;28;20029;-72
2021/12/23 00:51:39;;;;;;;55.28;27.48;;;2.30;99.90;;;;;;5032756;28;20022;-73
2021/12/23 00:54:05;;;;;;;53.08;26.20;;;2.30;99.90;;;;;;5032766;28;20029;-74
2021/12/23 00:56:32;;;;;;;50.58;26.25;;;2.40;99.90;;;;;;5032689;28;20477;-74
2021/12/23 00:58:58;;;;;;;50.70;27.13;;;2.30;99.90;;;;;;5033220;28;20022;-73
2021/12/23 01:01:24;;;;;;;52.08;26.83;;;2.20;99.90;;;;;;5032588;28;20021;-72
2021/12/23 01:03:50;;;;;;;51.75;27.63;;;2.30;99.90;;;;;;5035383;28;20032;-71
2021/12/23 01:06:15;;;;;;;53.75;28.83;;;2.30;99.90;;;;;;5036248;28;20399;-72
2021/12/23 01:08:41;;;;;;;47.00;26.05;;;2.40;99.90;;;;;;5036196;28;20463;-72
2021/12/23 01:11:08;;;;;;;55.38;27.20;;;2.50;99.90;;;;;;5036164;28;20033;-71
2021/12/23 01:13:34;;;;;;;51.67;26.55;;;2.60;99.90;;;;;;5036367;28;20493;-73
2021/12/23 01:18:30;;;;;;;54.20;27.00;;;2.40;99.90;;;;;;5036621;28;20377;-71
2021/12/23 01:21:04;;;;;;;;;;;2.40;99.90;;;;;;5036988;28;20028;-72
2021/12/23 01:23:31;;;;;;;53.00;27.00;;;2.40;99.90;;;;;;5035908;28;19905;-71
2021/12/23 01:25:57;;;;;;;52.03;25.38;;;2.50;99.90;;;;;;5035884;28;20022;-71
2021/12/23 01:28:23;;;;;;;50.08;26.17;;;2.50;99.90;;;;;;5035898;28;20483;-72
2021/12/23 01:30:49;;;;;;;51.50;27.52;;;2.60;99.90;;;;;;5036067;28;20371;-74
2021/12/23 01:33:15;;;;;;;46.85;24.83;;;2.60;99.90;;;;;;5034752;28;20547;-73
2021/12/23 01:35:44;;;;;;;48.00;25.15;;;2.60;99.90;;;;;;5035754;28;20033;-72
2021/12/23 01:38:10;;;;;;;52.17;27.50;;;2.70;99.90;;;;;;5035644;28;20044;-73
2021/12/23 01:40:36;;;;;;;49.95;27.85;;;2.60;99.90;;;;;;5035568;28;20481;-72
2021/12/23 01:43:04;;;;;;;49.47;27.55;;;2.70;99.90;;;;;;5035627;28;20378;-74
2021/12/23 01:45:32;;;;;;;55.47;27.85;;;2.70;99.90;;;;;;5035540;28;20060;-74
2021/12/23 01:47:58;;;;;;;53.95;28.83;;;2.70;99.90;;;;;;5035455;28;20025;-72
2021/12/23 01:50:27;;;;;;;54.38;26.15;;;2.80;99.90;;;;;;5035738;28;20030;-73
2021/12/23 01:52:58;;;;;;;52.33;27.13;;;2.80;99.90;;;;;;5035667;28;20482;-72
2021/12/23 01:55:24;;;;;;;51.42;25.25;;;2.80;99.90;;;;;;5035378;28;20075;-73
2021/12/23 01:57:50;;;;;;;50.53;27.73;;;2.90;99.90;;;;;;5035892;28;20104;-74
2021/12/23 02:00:19;;;;;;;46.55;25.65;;;3.00;99.90;;;;;;5035180;28;20030;-72
2021/12/23 02:02:44;;;;;;;56.30;27.35;;;3.00;99.90;;;;;;5034009;28;20022;-75
2021/12/23 02:05:12;;;;;;;51.03;27.13;;;2.90;99.90;;;;;;5035475;28;20604;-71
2021/12/23 02:07:38;;;;;;;50.95;25.75;;;2.80;99.90;;;;;;5033861;28;20022;-75
2021/12/23 02:10:06;;;;;;;49.08;24.33;;;2.90;99.90;;;;;;5035110;28;20028;-73
2021/12/23 02:12:32;;;;;;;55.30;27.20;;;2.90;99.90;;;;;;5035069;28;20021;-71
2021/12/23 02:14:58;;;;;;;46.72;26.17;;;3.00;99.90;;;;;;5034321;28;20044;-74
2021/12/23 02:17:24;;;;;;;48.35;24.73;;;2.90;99.90;;;;;;5034952;28;20022;-72
2021/12/23 02:19:54;;;;;;;51.95;26.70;;;3.00;99.90;;;;;;5035066;28;20030;-75
2021/12/23 02:22:20;;;;;;;51.58;26.02;;;3.00;99.90;;;;;;5035433;28;20056;-74
2021/12/23 02:24:46;;;;;;;56.40;26.50;;;3.00;99.90;;;;;;5034817;28;20030;-72
2021/12/23 02:27:11;;;;;;;53.25;26.75;;;3.00;99.90;;;;;;5034708;28;20028;-74
2021/12/23 02:29:37;;;;;;;56.33;27.45;;;2.80;99.90;;;;;;5034494;28;20091;-72
2021/12/23 02:32:03;;;;;;;54.80;27.08;;;2.70;99.90;;;;;;5034614;28;20108;-73
2021/12/23 02:34:29;;;;;;;49.53;25.77;;;2.80;99.90;;;;;;5034618;28;20080;-73
2021/12/23 02:36:57;;;;;;;51.58;26.02;;;2.80;99.90;;;;;;5034854;28;20025;-73
2021/12/23 02:39:25;;;;;;;47.92;26.08;;;2.80;99.90;;;;;;5034476;28;20021;-75
2021/12/23 02:41:50;;;;;;;48.78;25.23;;;2.70;99.90;;;;;;5034354;28;20027;-73
2021/12/23 02:44:17;;;;;;;51.08;26.40;;;2.70;99.90;;;;;;5034384;28;20063;-71
2021/12/23 02:46:43;;;;;;;48.67;25.83;;;2.60;99.90;;;;;;5034677;28;20017;-71
2021/12/23 02:49:09;;;;;;;55.38;29.25;;;2.80;99.90;;;;;;5034340;28;20026;-73
2021/12/23 02:51:35;;;;;;;55.80;27.05;;;2.90;99.90;;;;;;5034540;28;20032;-72
2021/12/23 02:54:00;;;;;;;51.67;25.83;;;2.70;99.90;;;;;;5034204;28;20037;-73
2021/12/23 02:56:26;;;;;;;71.63;33.70;;;2.70;99.90;;;;;;5034400;28;20033;-71
2021/12/23 02:58:52;;;;;;;49.65;25.02;;;2.80;99.90;;;;;;5034166;28;20033;-73
2021/12/23 03:01:20;;;;;;;49.33;26.95;;;2.80;99.90;;;;;;5034312;28;20022;-73
2021/12/23 03:03:45;;;;;;;53.47;26.88;;;2.70;99.90;;;;;;5034323;28;20022;-73
2021/12/23 03:06:12;;;;;;;47.50;24.40;;;2.60;99.90;;;;;;5034013;28;20044;-74
2021/12/23 03:08:40;;;;;;;52.20;27.83;;;2.60;99.90;;;;;;5033972;28;20014;-74
2021/12/23 03:11:10;;;;;;;58.30;29.55;;;2.60;99.90;;;;;;5034455;28;20026;-73
2021/12/23 03:13:35;;;;;;;52.92;27.35;;;2.60;99.90;;;;;;5033841;28;20022;-72
2021/12/23 03:16:02;;;;;;;51.10;26.48;;;2.50;99.90;;;;;;5033854;28;20490;-73
2021/12/23 03:18:28;;;;;;;52.70;26.20;;;2.60;99.90;;;;;;5033794;28;20029;-71
2021/12/23 03:20:55;;;;;;;55.42;26.27;;;2.50;99.90;;;;;;5034195;28;20470;-72
2021/12/23 03:23:20;;;;;;;64.40;34.97;;;2.60;99.90;;;;;;5033590;28;20417;-72
2021/12/23 03:25:46;;;;;;;62.03;35.58;;;2.60;99.90;;;;;;5033141;28;20025;-72
2021/12/23 03:28:12;;;;;;;50.38;27.25;;;2.80;99.90;;;;;;5032966;28;20505;-72
2021/12/23 03:30:38;;;;;;;56.92;27.50;;;2.90;99.90;;;;;;5033893;28;20029;-72
2021/12/23 03:33:05;;;;;;;54.13;26.63;;;2.90;99.90;;;;;;5033531;28;20493;-73
2021/12/23 03:35:31;;;;;;;49.83;25.85;;;3.00;99.90;;;;;;5033508;28;20032;-72
2021/12/23 03:37:57;;;;;;;53.08;28.42;;;3.00;99.90;;;;;;5033525;28;20021;-73
2021/12/23 03:40:23;;;;;;;52.55;25.83;;;2.90;99.90;;;;;;5033676;28;20416;-73
2021/12/23 03:42:49;;;;;;;47.40;25.02;;;3.10;99.90;;;;;;5033697;28;20025;-71
2021/12/23 03:45:15;;;;;;;46.85;25.02;;;3.10;99.90;;;;;;5033974;28;20410;-74
2021/12/23 03:47:41;;;;;;;49.85;25.35;;;3.10;99.90;;;;;;5033371;28;20022;-72
2021/12/23 03:50:07;;;;;;;54.50;28.35;;;3.10;99.90;;;;;;5033340;28;20079;-71
2021/12/23 03:52:33;;;;;;;54.45;29.77;;;3.20;99.90;;;;;;5033311;28;20029;-72
2021/12/23 03:55:00;;;;;;;48.90;26.70;;;3.10;99.90;;;;;;5033862;28;20057;-71
2021/12/23 03:57:25;;;;;;;51.58;27.27;;;3.10;99.90;;;;;;5033838;28;20420;-72
2021/12/23 03:59:51;;;;;;;51.67;27.23;;;3.10;99.90;;;;;;5033158;28;20029;-72
2021/12/23 04:02:17;;;;;;;55.13;27.92;;;3.10;99.90;;;;;;5033174;28;20030;-73
2021/12/23 04:04:43;;;;;;;53.85;26.60;;;3.00;99.90;;;;;;5033249;28;20060;-73
2021/12/23 04:07:09;;;;;;;54.10;26.98;;;3.00;99.90;;;;;;5033169;28;20418;-73
2021/12/23 04:09:35;;;;;;;46.47;24.92;;;3.00;99.90;;;;;;5033149;28;20034;-74
2021/12/23 04:12:01;;;;;;;49.72;28.23;;;3.00;99.90;;;;;;5033141;28;20108;-74
2021/12/23 04:14:27;;;;;;;46.95;23.38;;;3.00;99.90;;;;;;5033099;28;20026;-73
2021/12/23 04:16:52;;;;;;;48.95;25.90;;;3.10;99.90;;;;;;5033123;28;20568;-73
2021/12/23 04:19:18;;;;;;;47.67;25.08;;;3.20;99.90;;;;;;5033115;28;20053;-73
2021/12/23 04:21:44;;;;;;;49.58;24.50;;;3.30;99.90;;;;;;5032969;28;20021;-73
2021/12/23 04:24:10;;;;;;;51.13;25.95;;;3.30;99.90;;;;;;5032976;28;20540;-71
2021/12/23 04:26:38;;;;;;;49.08;26.52;;;3.30;99.90;;;;;;5032974;28;20018;-71
2021/12/23 04:29:05;;;;;;;50.72;25.98;;;3.20;99.90;;;;;;5033053;28;20052;-73
2021/12/23 04:31:32;;;;;;;49.33;24.65;;;3.30;99.90;;;;;;5032912;28;20561;-71
2021/12/23 04:33:58;;;;;;;50.78;27.70;;;3.30;99.90;;;;;;5033184;28;20029;-72
2021/12/23 04:36:29;;;;;;;52.40;25.42;;;3.20;99.90;;;;;;5032949;28;20028;-71
2021/12/23 04:38:55;;;;;;;53.78;27.63;;;3.20;99.90;;;;;;5035667;28;20022;-74
2021/12/23 04:41:22;;;;;;;56.50;28.13;;;3.10;99.90;;;;;;5036950;28;20477;-72
2021/12/23 04:43:47;;;;;;;48.85;25.63;;;3.00;99.90;;;;;;5036656;28;20025;-74
2021/12/23 04:46:13;;;;;;;49.75;26.33;;;3.00;99.90;;;;;;5036922;28;20028;-73
2021/12/23 04:48:39;;;;;;;51.40;26.30;;;3.00;99.90;;;;;;5036609;28;20104;-74
2021/12/23 04:51:05;;;;;;;56.03;26.58;;;3.10;99.90;;;;;;5036814;28;20026;-74
2021/12/23 04:53:31;;;;;;;51.83;27.65;;;3.00;99.90;;;;;;5036477;28;20033;-73
2021/12/23 04:55:57;;;;;;;55.42;27.55;;;3.00;99.90;;;;;;5036490;28;20021;-73
2021/12/23 04:58:23;;;;;;;55.03;27.27;;;3.10;99.90;;;;;;5036380;28;20022;-75
2021/12/23 05:00:51;;;;;;;47.15;26.55;;;3.10;99.90;;;;;;5036556;28;20021;-74
2021/12/23 05:03:19;;;;;;;55.33;25.92;;;3.10;99.90;;;;;;5036888;28;20024;-74
2021/12/23 05:05:45;;;;;;;56.47;27.15;;;3.10;99.90;;;;;;5036217;28;20052;-72
2021/12/23 05:08:12;;;;;;;49.38;26.58;;;3.10;99.90;;;;;;5036511;28;20029;-73
2021/12/23 05:10:38;;;;;;;52.53;27.90;;;3.10;99.90;;;;;;5036753;28;20021;-73
2021/12/23 05:13:04;;;;;;;47.88;25.55;;;3.20;99.90;;;;;;5036123;28;20033;-74
2021/12/23 05:15:30;;;;;;;53.03;26.38;;;3.30;99.90;;;;;;5036135;28;20022;-72
2021/12/23 05:17:56;;;;;;;56.45;27.92;;;3.20;99.90;;;;;;5036052;28;20029;-72
2021/12/23 05:20:22;;;;;;;53.33;26.83;;;3.30;99.90;;;;;;5036494;28;20031;-73
2021/12/23 05:22:48;;;;;;;53.83;27.90;;;3.40;99.90;;;;;;5036053;28;20385;-71
2021/12/23 05:25:14;;;;;;;54.00;25.20;;;3.40;99.90;;;;;;5035907;28;20026;-72
2021/12/23 05:27:39;;;;;;;53.45;27.27;;;3.50;99.90;;;;;;5035763;28;20029;-73
2021/12/23 05:30:10;;;;;;;51.15;27.17;;;3.40;99.90;;;;;;5035500;28;20045;-73
2021/12/23 05:32:36;;;;;;;53.85;27.75;;;3.30;99.90;;;;;;5034323;28;20047;-71
2021/12/23 05:35:02;;;;;;;55.25;27.23;;;3.40;99.90;;;;;;5035759;28;20021;-72
2021/12/23 05:37:27;;;;;;;62.85;28.48;;;3.30;99.90;;;;;;5035727;28;20385;-72
2021/12/23 05:39:53;;;;;;;56.38;25.63;;;3.30;99.90;;;;;;5035597;28;20025;-74
2021/12/23 05:42:19;;;;;;;68.55;28.45;;;3.30;99.90;;;;;;5035615;28;20056;-74
2021/12/23 05:44:44;;;;;;;73.07;29.70;;;3.40;99.90;;;;;;5035588;28;20063;-74
2021/12/23 05:47:10;;;;;;;77.53;29.35;;;3.40;99.90;;;;;;5035562;28;20032;-73
2021/12/23 05:49:36;;;;;;;64.03;29.08;;;3.30;99.90;;;;;;5033110;28;20029;-72
2021/12/23 05:52:02;;;;;;;77.13;31.08;;;3.30;99.90;;;;;;5035444;28;20386;-73
2021/12/23 05:54:28;;;;;;;69.45;31.50;;;3.30;99.90;;;;;;5035691;28;20108;-72
2021/12/23 05:56:57;;;;;;;66.78;28.00;;;3.40;99.90;;;;;;5035348;28;20061;-75
2021/12/23 05:59:23;;;;;;;79.40;31.88;;;3.40;99.90;;;;;;5035309;28;20022;-72
2021/12/23 06:01:48;;;;;;;68.03;31.48;;;3.30;99.90;;;;;;5035425;28;20029;-74
2021/12/23 06:04:14;;;;;;;84.47;33.78;;;3.40;99.90;;;;;;5035178;28;20026;-73
2021/12/23 06:06:40;;;;;;;66.88;29.25;;;3.40;99.90;;;;;;5035214;28;20397;-74
2021/12/23 06:09:06;;;;;;;64.25;29.25;;;3.50;99.90;;;;;;5035101;28;20100;-72
2021/12/23 06:11:32;;;;;;;76.22;31.10;;;3.50;99.90;;;;;;5035074;28;20038;-72
2021/12/23 06:13:57;;;;;;;72.75;31.95;;;3.50;99.90;;;;;;5035061;28;20048;-75
2021/12/23 06:16:23;;;;;;;75.57;30.88;;;3.50;99.90;;;;;;5035281;28;20026;-71
2021/12/23 06:18:48;;;;;;;71.78;32.20;;;3.50;99.90;;;;;;5035236;28;20026;-72
2021/12/23 06:21:14;;;;;;;67.15;30.35;;;3.40;99.90;;;;;;5034842;28;20061;-74
2021/12/23 06:23:40;;;;;;;65.60;28.77;;;3.30;99.90;;;;;;5035072;28;20022;-75
2021/12/23 06:26:05;;;;;;;69.03;31.33;;;3.30;99.90;;;;;;5034784;28;20100;-73
2021/12/23 06:28:31;;;;;;;64.60;28.27;;;3.30;99.90;;;;;;5034565;28;20041;-75
2021/12/23 06:30:57;;;;;;;67.30;30.10;;;3.40;99.90;;;;;;5034717;28;20021;-74
2021/12/23 06:33:22;;;;;;;83.47;30.05;;;3.60;99.90;;;;;;5034893;28;20022;-71
2021/12/23 06:35:48;;;;;;;66.97;31.20;;;3.50;99.90;;;;;;5034566;28;20068;-75
2021/12/23 06:38:14;;;;;;;62.67;28.15;;;3.50;99.90;;;;;;5034551;28;20026;-73
2021/12/23 06:40:40;;;;;;;69.22;31.45;;;3.60;99.90;;;;;;5034711;28;20029;-72
2021/12/23 06:43:06;;;;;;;65.43;31.35;;;3.50;99.90;;;;;;5035068;28;20013;-72
2021/12/23 06:45:32;;;;;;;76.32;30.77;;;3.40;99.90;;;;;;5034968;28;20029;-72
2021/12/23 06:47:58;;;;;;;80.28;31.38;;;3.50;99.90;;;;;;5034395;28;20474;-73
2021/12/23 06:50:23;;;;;;;76.95;31.67;;;3.40;99.90;;;;;;5035174;28;20044;-73
2021/12/23 06:52:50;;;;;;;62.42;29.13;;;3.40;99.90;;;;;;5034613;28;20024;-73
2021/12/23 06:55:17;;;;;;;76.43;32.78;;;3.30;99.90;;;;;;5034202;28;20106;-72
2021/12/23 06:57:43;;;;;;;66.63;29.95;;;3.30;99.90;;;;;;5034466;28;20025;-72
2021/12/23 07:00:14;;;;;;;67.65;29.80;;;3.40;99.90;;;;;;5033868;28;20036;-74
2021/12/23 07:02:41;;;;;;;76.35;32.08;;;3.40;99.90;;;;;;5034420;28;20025;-74
2021/12/23 07:05:08;;;;;;;74.75;30.20;;;3.40;99.90;;;;;;5034097;28;20481;-72
2021/12/23 07:07:53;;;;;;;70.00;31.10;;;3.50;99.90;;;;;;5034041;28;20030;-74
2021/12/23 07:10:25;;;;;;;73.90;33.10;;;3.50;99.90;;;;;;5034276;28;20478;-71
2021/12/23 07:12:51;;;;;;;58.38;27.13;;;3.70;99.90;;;;;;5034231;28;20545;-72
2021/12/23 07:15:17;;;;;;;68.82;31.52;;;3.80;99.90;;;;;;5033872;28;20033;-71
2021/12/23 07:17:43;;;;;;;71.55;31.63;;;3.80;99.90;;;;;;5034086;28;20543;-74
2021/12/23 07:20:10;;;;;;;74.03;34.55;;;3.80;99.90;;;;;;5033994;28;20032;-73
2021/12/23 07:22:35;;;;;;;69.05;32.08;;;3.80;99.90;;;;;;5033718;28;20100;-74
2021/12/23 07:25:02;;;;;;;72.75;32.22;;;3.80;99.90;;;;;;5033611;28;20065;-72
2021/12/23 07:27:27;;;;;;;71.07;31.77;;;3.80;99.90;;;;;;5033958;28;20101;-71
2021/12/23 07:29:53;;;;;;;74.63;30.90;;;3.80;99.90;;;;;;5033405;28;20462;-74
2021/12/23 07:32:19;;;;;;;67.47;31.73;;;3.80;99.90;;;;;;5033899;28;20034;-73
2021/12/23 07:34:44;;;;;;;102.53;47.15;;;3.80;99.90;;;;;;5033574;28;20381;-72
2021/12/23 07:37:11;;;;;;;79.60;34.60;;;3.80;99.90;;;;;;5033810;28;20456;-73
2021/12/23 07:39:38;;;;;;;82.60;34.67;;;3.80;99.90;;;;;;5033482;28;20032;-71
2021/12/23 07:42:06;;;;;;;92.05;41.70;;;3.90;99.90;;;;;;5033421;28;20397;-71
2021/12/23 07:44:33;;;;;;;106.10;49.90;;;3.80;99.90;;;;;;5033955;28;20067;-72
2021/12/23 07:46:58;;;;;;;118.78;51.88;;;3.90;99.90;;;;;;5033416;28;20025;-71
2021/12/23 07:49:25;;;;;;;78.85;33.60;;;3.90;99.90;;;;;;5033926;28;20014;-74
2021/12/23 07:51:51;;;;;;;84.38;39.38;;;3.90;99.90;;;;;;5033376;28;20109;-75
2021/12/23 07:54:17;;;;;;;64.13;30.30;;;3.90;99.90;;;;;;5033352;28;20057;-71
2021/12/23 07:56:43;;;;;;;57.22;27.23;;;4.00;99.90;;;;;;5033304;28;20025;-71
2021/12/23 07:59:08;;;;;;;64.72;26.20;;;4.20;99.90;;;;;;5033294;28;20392;-72
2021/12/23 08:01:34;;;;;;;65.43;26.58;;;4.50;99.90;;;;;;5033172;28;20025;-75
2021/12/23 08:04:00;;;;;;;52.20;22.90;;;4.70;99.90;;;;;;5033745;28;20024;-74
2021/12/23 08:06:26;;;;;;;51.95;24.23;;;4.80;99.90;;;;;;5033459;28;20026;-74
2021/12/23 08:08:52;;;;;;;53.75;23.00;;;4.90;99.90;;;;;;5033466;28;20025;-74
2021/12/23 08:11:18;;;;;;;57.85;24.25;;;5.00;99.90;;;;;;5044773;28;20023;-77
2021/12/23 08:13:43;;;;;;;51.40;24.08;;;5.00;99.90;;;;;;5036442;28;20444;-77
2021/12/23 08:16:09;;;;;;;54.00;25.40;;;5.00;99.90;;;;;;5037223;28;20044;-77
2021/12/23 08:18:35;;;;;;;52.40;23.95;;;5.10;99.90;;;;;;5048972;28;20079;-76
2021/12/23 08:21:01;;;;;;;52.05;26.88;;;5.10;99.90;;;;;;5037313;28;20041;-76
2021/12/23 08:23:27;;;;;;;58.75;23.63;;;5.20;99.90;;;;;;5046457;28;20083;-79
2021/12/23 08:25:54;;;;;;;55.15;23.58;;;5.20;99.90;;;;;;5056990;28;20022;-78
2021/12/23 08:28:20;;;;;;;48.22;23.63;;;5.40;99.90;;;;;;5056396;28;20021;-77
2021/12/23 08:30:46;;;;;;;50.65;25.30;;;5.30;99.90;;;;;;5052293;28;20058;-75
2021/12/23 08:33:12;;;;;;;59.38;30.52;;;5.30;99.90;;;;;;5039798;28;20025;-76
2021/12/23 08:35:38;;;;;;;48.88;24.58;;;5.40;99.90;;;;;;5038926;28;20024;-78
2021/12/23 08:38:05;;;;;;;47.08;24.88;;;5.40;99.90;;;;;;5055137;28;20112;-76
2021/12/23 08:40:32;;;;;;;59.10;27.50;;;5.40;99.90;;;;;;5050006;28;20117;-76
2021/12/23 08:42:58;;;;;;;49.70;25.65;;;5.50;99.90;;;;;;5035521;28;20029;-77
2021/12/23 08:45:26;;;;;;;48.30;26.30;;;5.40;99.90;;;;;;5054624;28;20029;-75
2021/12/23 08:47:56;;;;;;;48.30;24.73;;;5.50;99.90;;;;;;5056599;28;20029;-79
2021/12/23 08:50:25;;;;;;;55.58;24.35;;;5.50;99.90;;;;;;5037983;28;20489;-78
2021/12/23 08:52:51;;;;;;;52.17;22.63;;;5.50;99.90;;;;;;5036856;28;20032;-78
2021/12/23 08:55:18;;;;;;;44.50;22.05;;;5.60;99.90;;;;;;5052412;28;20078;-78
2021/12/23 08:57:44;;;;;;;53.47;27.95;;;5.60;99.90;;;;;;5051758;28;20026;-76
2021/12/23 09:00:13;;;;;;;49.58;27.08;;;5.60;99.90;;;;;;5042727;28;20021;-75
2021/12/23 09:02:39;;;;;;;53.95;25.48;;;5.60;99.90;;;;;;5056308;28;20436;-76
2021/12/23 09:05:06;;;;;;;47.55;25.33;;;5.60;99.90;;;;;;5050748;28;20013;-75
2021/12/23 09:07:32;;;;;;;50.17;28.40;;;5.70;99.90;;;;;;5034990;28;20029;-76
2021/12/23 09:09:58;;;;;;;45.67;26.50;;;5.70;99.90;;;;;;5036517;28;20080;-73
2021/12/23 09:12:25;;;;;;;42.83;23.30;;;5.70;99.90;;;;;;5047057;28;20032;-74
2021/12/23 09:14:51;;;;;;;48.45;23.88;;;5.70;99.90;;;;;;5036743;28;20025;-74
2021/12/23 09:17:16;;;;;;;38.67;21.17;;;5.80;99.90;;;;;;5053308;28;20396;-76
2021/12/23 09:19:43;;;;;;;46.28;23.85;;;5.80;99.90;;;;;;5056092;28;20040;-77
2021/12/23 09:22:09;;;;;;;50.30;24.52;;;5.80;99.90;;;;;;5056078;28;20458;-77
2021/12/23 09:24:38;;;;;;;45.35;24.15;;;5.90;99.90;;;;;;5055979;28;20036;-75
2021/12/23 09:27:34;;;;;;;41.72;20.90;;;5.90;99.90;;;;;;5040487;28;20393;-78
2021/12/23 09:35:03;;;;;;;41.85;22.30;;;6.10;99.90;;;;;;5037273;28;20049;-77
2021/12/23 09:37:29;;;;;;;48.90;24.67;;;6.20;99.90;;;;;;5047990;28;20025;-76
2021/12/23 09:39:58;;;;;;;35.17;19.88;;;6.30;99.90;;;;;;5040270;28;20036;-73
2021/12/23 09:42:29;;;;;;;37.97;19.63;;;6.30;99.90;;;;;;5037572;28;20055;-74
2021/12/23 09:44:59;;;;;;;35.28;20.27;;;6.50;99.90;;;;;;5039008;28;20025;-73
2021/12/23 09:47:33;;;;;;;33.03;19.10;;;6.50;99.90;;;;;;5042339;28;20485;-73
2021/12/23 09:50:00;;;;;;;39.58;22.48;;;6.60;99.90;;;;;;5036011;28;20021;-72
2021/12/23 09:52:29;;;;;;;38.20;20.75;;;6.60;99.90;;;;;;5035462;28;20029;-72
2021/12/23 09:54:56;;;;;;;37.05;21.45;;;6.70;99.90;;;;;;5035305;28;20026;-72
2021/12/23 09:57:22;;;;;;;37.78;20.75;;;6.70;99.90;;;;;;5047597;28;20447;-74
2021/12/23 09:59:48;;;;;;;35.38;20.38;;;6.70;99.90;;;;;;5055312;28;20096;-74
2021/12/23 10:02:14;;;;;;;39.92;21.55;;;6.70;99.90;;;;;;5039106;28;20029;-74
2021/12/23 10:04:40;;;;;;;33.90;19.55;;;6.80;99.90;;;;;;5055161;28;20367;-76
2021/12/23 10:07:07;;;;;;;37.22;21.27;;;6.80;99.90;;;;;;5043074;28;20072;-75
2021/12/23 10:09:46;;;;;;;56.20;34.78;;;6.90;99.90;;;;;;5042140;28;20013;-77
2021/12/23 10:31:06;;;;;;;39.75;22.35;;;7.40;99.90;;;;;;5034814;28;20110;-76
2021/12/23 10:37:06;;;;;;;35.53;23.50;;;7.40;99.90;;;;;;5034798;28;20049;-78
2021/12/23 10:39:24;;;;;;;40.63;21.95;;;7.50;99.90;;;;;;5049241;28;20135;-75
2021/12/23 10:41:49;;;;;;;40.83;20.70;;;7.50;99.90;;;;;;5050873;28;20025;-76
2021/12/23 10:44:28;;;;;;;37.90;21.02;;;7.50;99.90;;;;;;5053411;28;20409;-78
2021/12/23 10:46:54;;;;;;;37.20;20.90;;;7.50;99.90;;;;;;5038156;28;20045;-76
2021/12/23 10:52:03;;;;;;;35.05;20.80;;;7.60;99.90;;;;;;5034373;28;20033;-76
2021/12/23 11:00:11;;;;;;;42.30;22.65;;;7.70;99.90;;;;;;5054283;28;20405;-76
2021/12/23 11:02:38;;;;;;;40.38;22.70;;;7.80;99.90;;;;;;5052458;28;20414;-75
2021/12/23 11:05:22;;;;;;;41.88;23.15;;;7.80;99.90;;;;;;5052831;28;20462;-76
2021/12/23 11:08:11;;;;;;;47.78;26.38;;;7.80;99.90;;;;;;5052561;28;20027;-75
2021/12/23 11:10:59;;;;;;;44.75;26.23;;;7.90;99.90;;;;;;5039032;28;20040;-76
2021/12/23 11:41:30;;;;;;;45.42;26.05;;;8.20;99.90;;;;;;5044282;28;20040;-71
2021/12/23 11:43:59;;;;;;;40.85;23.85;;;8.40;99.90;;;;;;5052892;28;20072;-71
2021/12/23 11:46:36;;;;;;;43.80;25.02;;;8.40;99.90;;;;;;5051882;28;20024;-73
2021/12/23 11:49:07;;;;;;;43.67;24.52;;;8.50;99.90;;;;;;5053369;28;20021;-72
2021/12/23 11:51:51;;;;;;;44.10;26.75;;;8.50;99.90;;;;;;5053640;28;20033;-72
2021/12/23 11:54:19;;;;;;;47.17;31.92;;;8.60;99.90;;;;;;5053613;28;20036;-72
2021/12/23 11:56:55;;;;;;;49.33;35.35;;;8.60;99.90;;;;;;5053229;28;20029;-73
2021/12/23 11:59:21;;;;;;;43.13;25.60;;;8.60;99.90;;;;;;5053223;28;20032;-73
2021/12/23 12:01:55;;;;;;;48.10;30.17;;;8.60;99.90;;;;;;5053123;28;20029;-73
2021/12/23 12:04:25;;;;;;;38.50;24.75;;;8.60;99.90;;;;;;5053519;28;20028;-73
2021/12/23 12:06:52;;;;;;;49.03;34.15;;;8.60;99.90;;;;;;5053686;28;20023;-73
2021/12/23 12:09:33;;;;;;;56.67;44.15;;;8.60;99.90;;;;;;5053354;28;20025;-73
2021/12/23 12:11:58;;;;;;;45.47;25.25;;;8.70;99.90;;;;;;5053625;28;20048;-73
2021/12/23 12:14:45;;;;;;;53.67;41.50;;;8.70;99.90;;;;;;5053009;28;20478;-73
2021/12/23 12:17:26;;;;;;;40.75;25.42;;;8.80;99.90;;;;;;5053110;28;20433;-72
2021/12/23 12:20:11;;;;;;;44.58;25.58;;;8.80;99.90;;;;;;5053265;28;20052;-73
2021/12/23 12:23:03;;;;;;;37.40;24.50;;;8.80;99.90;;;;;;5053495;28;20029;-73
2021/12/23 12:25:28;;;;;;;44.97;32.08;;;8.80;99.90;;;;;;5053118;28;20017;-74
2021/12/23 12:27:57;;;;;;;39.75;25.90;;;8.80;99.90;;;;;;5053191;28;20044;-72
2021/12/23 12:30:49;;;;;;;37.10;23.05;;;8.90;99.90;;;;;;5052523;28;20041;-71
2021/12/23 12:33:18;;;;;;;36.83;22.60;;;9.10;99.90;;;;;;5052946;28;20028;-71
2021/12/23 12:36:04;;;;;;;38.55;28.70;;;9.20;99.90;;;;;;5053429;28;20075;-72
2021/12/23 12:38:48;;;;;;;42.00;25.83;;;9.20;99.90;;;;;;5052930;28;20120;-71
2021/12/23 12:41:19;;;;;;;38.53;22.17;;;9.30;99.90;;;;;;5053004;28;20028;-72
2021/12/23 12:43:50;;;;;;;38.47;20.65;;;9.20;99.90;;;;;;5053309;28;20135;-72
2021/12/23 12:46:42;;;;;;;42.03;22.00;;;9.20;99.90;;;;;;5053316;28;20070;-71
2021/12/23 12:49:38;;;;;;;41.40;23.83;;;9.30;99.90;;;;;;5053065;28;20127;-73
2021/12/23 12:52:18;;;;;;;42.05;24.75;;;9.30;99.90;;;;;;5051483;28;20569;-72
2021/12/23 12:54:51;;;;;;;42.10;23.45;;;9.20;99.90;;;;;;5052186;28;20048;-74
2021/12/23 12:57:20;;;;;;;37.97;20.85;;;9.30;99.90;;;;;;5052064;28;20496;-73
2021/12/23 12:59:48;;;;;;;37.17;22.13;;;9.40;99.90;;;;;;5054528;28;20025;-73
2021/12/23 13:02:30;;;;;;;39.42;20.85;;;9.40;99.90;;;;;;5056228;28;20021;-73
2021/12/23 13:05:10;;;;;;;36.40;23.23;;;9.50;99.90;;;;;;5056547;28;20446;-72
2021/12/23 13:07:41;;;;;;;72.28;42.65;;;9.50;99.90;;;;;;5056352;28;20067;-73
2021/12/23 13:10:15;;;;;;;60.80;35.80;;;9.60;99.90;;;;;;5052717;28;20029;-78
2021/12/23 13:12:56;;;;;;;52.92;33.40;;;9.50;99.90;;;;;;5037253;28;20531;-76
2021/12/23 13:15:25;;;;;;;43.80;27.20;;;9.50;99.90;;;;;;5036772;28;20104;-75
2021/12/23 13:18:07;;;;;;;38.17;25.02;;;9.40;99.90;;;;;;5036266;28;20363;-76
2021/12/23 13:20:43;;;;;;;48.85;30.10;;;9.40;99.90;;;;;;5036734;28;20040;-76
2021/12/23 13:23:18;;;;;;;47.25;28.63;;;9.40;99.90;;;;;;5036502;28;20067;-75
2021/12/23 13:25:46;;;;;;;39.90;26.25;;;9.50;99.90;;;;;;5037789;28;20026;-73
2021/12/23 13:28:21;;;;;;;45.08;33.20;;;9.50;99.90;;;;;;5042917;28;20520;-76
2021/12/23 13:30:47;;;;;;;45.25;29.27;;;9.60;99.90;;;;;;5041327;28;20080;-74
2021/12/23 13:33:12;;;;;;;46.03;28.30;;;9.50;99.90;;;;;;5036177;28;20059;-77
2021/12/23 13:35:38;;;;;;;41.20;28.23;;;9.60;99.90;;;;;;5038087;28;20051;-75
2021/12/23 13:38:04;;;;;;;43.83;29.80;;;9.70;99.90;;;;;;5035878;28;20105;-77
2021/12/23 13:40:40;;;;;;;43.33;26.52;;;9.70;99.90;;;;;;5035664;28;20075;-80
2021/12/23 13:43:05;;;;;;;39.28;23.70;;;9.70;99.90;;;;;;5036468;28;20028;-77
2021/12/23 13:45:31;;;;;;;39.03;23.25;;;9.80;99.90;;;;;;5039061;28;20401;-76
2021/12/23 13:47:59;;;;;;;32.15;20.63;;;9.70;99.90;;;;;;5056062;28;20021;-78
2021/12/23 13:50:27;;;;;;;46.78;20.70;;;9.70;99.90;;;;;;5055108;28;20021;-77
2021/12/23 13:52:54;;;;;;;36.53;21.95;;;9.80;99.90;;;;;;5055424;28;20063;-75